Time;durP1;ratioP1;P1;durP2;ratioP2;P2;SDS_P1;SDS_P2;PMS_P1;PMS_P2;Temp;Humidity;BMP_temperature;BMP_pressure;BME280_temperature;BME280_humidity;BME280_pressure;Samples;Min_cycle;Max_cycle;Signal;HPM_P1;HPM_P2
2024/01/05 00:01:53;;;;;;;1.10;0.60;;;;;;;5.51;70.30;94749.08;110594;1274;22108;-79
2024/01/05 00:04:21;;;;;;;1.30;0.60;;;;;;;5.52;70.23;94758.34;110621;1274;22762;-80
2024/01/05 00:06:49;;;;;;;2.40;0.90;;;;;;;5.54;70.13;94757.78;110559;1274;22122;-80
2024/01/05 00:09:18;;;;;;;2.90;0.80;;;;;;;5.54;70.13;94755.69;110598;1274;22132;-81
2024/01/05 00:11:47;;;;;;;2.70;0.70;;;;;;;5.54;70.10;94760.92;110597;1274;22142;-79
2024/01/05 00:14:16;;;;;;;2.40;0.90;;;;;;;5.52;70.15;94754.14;110604;1274;22110;-81
2024/01/05 00:16:44;;;;;;;1.30;0.90;;;;;;;5.49;70.24;94756.45;110613;1274;22100;-80
2024/01/05 00:19:12;;;;;;;1.30;0.70;;;;;;;5.47;70.15;94760.48;110596;1274;22137;-81
2024/01/05 00:21:41;;;;;;;1.80;0.70;;;;;;;5.45;70.22;94770.28;110605;1274;22135;-81
2024/01/05 00:24:09;;;;;;;2.20;0.80;;;;;;;5.37;70.51;94770.38;110596;1274;22114;-80
2024/01/05 00:26:41;;;;;;;1.10;1.00;;;;;;;5.31;70.53;94775.69;110602;1274;22379;-80
2024/01/05 00:29:10;;;;;;;1.10;0.70;;;;;;;5.30;70.58;94774.64;110614;1274;22705;-80
2024/01/05 00:31:39;;;;;;;2.20;1.10;;;;;;;5.30;70.46;94776.75;110565;1274;22183;-81
2024/01/05 00:34:07;;;;;;;1.60;1.00;;;;;;;5.31;70.33;94780.91;110576;1274;23097;-80
2024/01/05 00:36:36;;;;;;;2.30;0.90;;;;;;;5.27;70.30;94786.36;110592;1274;22716;-81
2024/01/05 00:39:04;;;;;;;3.00;0.90;;;;;;;5.26;70.47;94787.77;110612;1274;22103;-80
2024/01/05 00:41:32;;;;;;;2.10;0.80;;;;;;;5.26;70.53;94789.52;110584;1274;22146;-80
2024/01/05 00:44:01;;;;;;;1.90;0.80;;;;;;;5.24;70.61;94783.08;110643;1274;23080;-80
2024/01/05 00:46:29;;;;;;;0.80;0.60;;;;;;;5.23;70.64;94785.71;110586;1274;22112;-79
2024/01/05 00:48:57;;;;;;;1.60;1.10;;;;;;;5.29;70.22;94783.03;110606;1274;22121;-81
2024/01/05 00:51:25;;;;;;;2.00;1.00;;;;;;;5.31;70.18;94781.43;110588;1274;22928;-80
2024/01/05 00:53:55;;;;;;;3.90;1.00;;;;;;;5.31;70.10;94789.63;110605;1274;22129;-81
2024/01/05 00:56:24;;;;;;;1.40;0.90;;;;;;;5.30;70.08;94791.55;110611;1274;22196;-82
2024/01/05 00:58:52;;;;;;;7.10;0.60;;;;;;;5.33;69.74;94792.21;110593;1274;22191;-80
2024/01/05 01:01:20;;;;;;;1.00;0.70;;;;;;;5.37;69.23;94794.96;110622;1274;22769;-80
2024/01/05 01:03:48;;;;;;;2.50;0.90;;;;;;;5.38;69.48;94805.07;110604;1274;22131;-80
2024/01/05 01:06:16;;;;;;;1.50;1.10;;;;;;;5.35;69.34;94803.53;110561;1274;22206;-80
2024/01/05 01:08:45;;;;;;;1.70;1.00;;;;;;;5.36;69.19;94802.30;110618;1274;22095;-79
2024/01/05 01:11:17;;;;;;;1.10;0.70;;;;;;;5.37;69.30;94801.94;110629;1270;22128;-80
2024/01/05 01:13:45;;;;;;;3.00;1.10;;;;;;;5.35;69.53;94805.29;110600;1274;22147;-80
2024/01/05 01:16:13;;;;;;;0.90;0.80;;;;;;;5.38;69.33;94808.20;110610;1274;22128;-81
2024/01/05 01:18:42;;;;;;;1.50;0.80;;;;;;;5.37;69.43;94810.67;110605;1274;22954;-80
2024/01/05 01:21:11;;;;;;;1.00;0.90;;;;;;;5.34;69.50;94817.50;110598;1274;22816;-78
2024/01/05 01:23:39;;;;;;;2.80;1.00;;;;;;;5.36;69.48;94826.55;110606;1274;22807;-80
2024/01/05 01:26:07;;;;;;;2.00;1.00;;;;;;;5.38;69.50;94824.77;110587;1274;22100;-80
2024/01/05 01:28:35;;;;;;;1.60;1.00;;;;;;;5.37;69.69;94829.14;110607;1274;22947;-79
2024/01/05 01:31:03;;;;;;;1.20;0.70;;;;;;;5.40;69.63;94832.42;110642;1264;22147;-80
2024/01/05 01:33:32;;;;;;;1.40;0.60;;;;;;;5.41;69.43;94833.80;110611;1274;22161;-80
2024/01/05 01:36:00;;;;;;;1.20;0.80;;;;;;;5.40;69.54;94835.39;110597;1274;22878;-80
2024/01/05 01:38:28;;;;;;;2.10;0.80;;;;;;;5.41;69.51;94835.38;110581;1274;22122;-79
2024/01/05 01:40:57;;;;;;;1.70;1.10;;;;;;;5.41;69.40;94844.27;110618;1274;22255;-80
2024/01/05 01:43:26;;;;;;;1.30;0.90;;;;;;;5.42;69.27;94847.93;110586;1274;22991;-81
2024/01/05 01:45:57;;;;;;;1.50;1.00;;;;;;;5.44;69.24;94859.08;110606;1275;23121;-80
2024/01/05 01:48:26;;;;;;;1.70;1.10;;;;;;;5.43;69.28;94865.71;110663;1274;22167;-80
2024/01/05 01:50:56;;;;;;;2.30;1.20;;;;;;;5.43;69.23;94859.27;110598;1274;22232;-79
2024/01/05 01:53:27;;;;;;;2.60;0.90;;;;;;;5.43;69.27;94872.86;110616;1274;22135;-80
2024/01/05 01:55:55;;;;;;;1.50;0.90;;;;;;;5.40;69.14;94869.22;110611;1274;22194;-80
2024/01/05 01:58:24;;;;;;;1.30;1.10;;;;;;;5.40;69.08;94876.55;110613;1272;22440;-80
2024/01/05 02:00:53;;;;;;;3.40;0.90;;;;;;;5.36;69.30;94873.63;110607;1274;22324;-80
2024/01/05 02:03:21;;;;;;;3.00;1.00;;;;;;;5.32;69.22;94870.53;110638;1274;22092;-80
2024/01/05 02:05:50;;;;;;;1.70;1.00;;;;;;;5.32;69.23;94872.45;110623;1274;22853;-79
2024/01/05 02:08:19;;;;;;;2.20;0.90;;;;;;;5.30;69.12;94874.91;110606;1274;22626;-80
2024/01/05 02:10:47;;;;;;;3.30;1.00;;;;;;;5.28;69.33;94870.75;110628;1274;22309;-80
2024/01/05 02:13:15;;;;;;;1.10;0.70;;;;;;;5.20;69.70;94876.23;110604;1274;22844;-80
2024/01/05 02:15:43;;;;;;;1.60;0.50;;;;;;;5.12;69.91;94881.88;110611;1274;22257;-80
2024/01/05 02:18:13;;;;;;;1.70;0.60;;;;;;;5.08;69.94;94887.83;110614;1263;22126;-79
2024/01/05 02:20:46;;;;;;;1.10;0.90;;;;;;;5.07;69.97;94895.16;110632;1275;22175;-79
2024/01/05 02:23:25;;;;;;;;;;;;;;;5.09;69.79;94895.67;110530;1274;22338;-80
2024/01/05 02:25:57;;;;;;;1.50;0.70;;;;;;;5.06;69.85;94895.00;110573;1274;22118;-79
2024/01/05 02:28:25;;;;;;;0.60;0.60;;;;;;;5.03;70.00;94895.90;110586;1274;22288;-79
2024/01/05 02:30:54;;;;;;;1.10;0.80;;;;;;;5.01;70.08;94896.45;110594;1274;22105;-80
2024/01/05 02:33:23;;;;;;;2.50;0.90;;;;;;;5.01;70.18;94895.22;110610;1274;22882;-80
2024/01/05 02:35:52;;;;;;;1.70;0.80;;;;;;;4.99;70.30;94895.42;110654;1273;22209;-80
2024/01/05 02:38:20;;;;;;;1.70;0.70;;;;;;;4.97;70.34;94892.64;110615;1274;22128;-80
2024/01/05 02:40:48;;;;;;;2.50;0.80;;;;;;;4.97;70.47;94896.47;110595;1274;22118;-80
2024/01/05 02:43:17;;;;;;;1.70;1.00;;;;;;;4.98;70.35;94896.98;110628;1274;22109;-80
2024/01/05 02:45:45;;;;;;;1.10;0.60;;;;;;;5.02;70.38;94897.13;110595;1275;22333;-81
2024/01/05 02:48:13;;;;;;;1.50;0.90;;;;;;;5.05;70.24;94892.40;110588;1274;22193;-79
2024/01/05 02:50:41;;;;;;;3.30;1.10;;;;;;;5.08;70.12;94898.13;110628;1274;22588;-80
2024/01/05 02:53:10;;;;;;;1.00;0.60;;;;;;;5.11;70.05;94908.38;110605;1274;23006;-80
2024/01/05 02:55:38;;;;;;;0.60;0.60;;;;;;;5.13;69.93;94908.36;110594;1274;22883;-80
2024/01/05 02:58:06;;;;;;;1.40;0.80;;;;;;;5.15;69.91;94912.88;110609;1274;22208;-80
2024/01/05 03:00:35;;;;;;;0.90;0.70;;;;;;;5.17;69.93;94905.72;110615;1274;22149;-80
2024/01/05 03:03:04;;;;;;;1.90;1.10;;;;;;;5.15;69.82;94905.91;110647;1275;22202;-81
2024/01/05 03:05:33;;;;;;;1.70;0.90;;;;;;;5.15;69.99;94912.70;110583;1274;22183;-80
2024/01/05 03:08:03;;;;;;;2.40;0.80;;;;;;;5.12;69.98;94918.48;110589;1274;22176;-79
2024/01/05 03:10:31;;;;;;;2.00;0.80;;;;;;;5.13;69.75;94919.18;110611;1274;22210;-80
2024/01/05 03:12:59;;;;;;;5.70;1.60;;;;;;;5.09;69.88;94919.91;110585;1274;22176;-81
2024/01/05 03:15:27;;;;;;;2.40;1.00;;;;;;;5.07;69.99;94919.23;110556;1274;22164;-80
2024/01/05 03:17:55;;;;;;;1.40;0.80;;;;;;;5.02;70.03;94923.61;110583;1274;22916;-80
2024/01/05 03:20:24;;;;;;;2.30;0.90;;;;;;;5.01;70.02;94921.02;110596;1274;22411;-79
2024/01/05 03:22:52;;;;;;;1.80;1.30;;;;;;;4.99;70.01;94923.48;110612;1274;22166;-80
2024/01/05 03:25:20;;;;;;;1.90;1.10;;;;;;;4.98;70.07;94917.73;110593;1274;22159;-80
2024/01/05 03:27:48;;;;;;;1.90;1.00;;;;;;;4.97;70.09;94916.86;110579;1274;22815;-80
2024/01/05 03:30:17;;;;;;;1.60;0.70;;;;;;;4.94;70.25;94921.59;110622;1274;22120;-80
2024/01/05 03:32:45;;;;;;;0.90;0.70;;;;;;;4.90;70.34;94924.94;110604;1274;22112;-81
2024/01/05 03:35:14;;;;;;;1.20;0.90;;;;;;;4.86;70.58;94935.95;110612;1274;22134;-80
2024/01/05 03:37:42;;;;;;;1.60;0.60;;;;;;;4.80;70.69;94933.20;110601;1274;22099;-81
2024/01/05 03:40:10;;;;;;;0.80;0.60;;;;;;;4.75;70.94;94937.76;110587;1275;22954;-80
2024/01/05 03:42:38;;;;;;;1.40;0.70;;;;;;;4.71;71.14;94947.72;110610;1274;22734;-80
2024/01/05 03:45:07;;;;;;;1.60;0.80;;;;;;;4.68;71.14;94960.12;110622;1274;22137;-80
2024/01/05 03:47:35;;;;;;;2.70;0.90;;;;;;;4.64;71.38;94971.80;110567;1275;22134;-80
2024/01/05 03:50:04;;;;;;;2.60;1.10;;;;;;;4.66;71.36;94969.35;110602;1274;22079;-77
2024/01/05 03:52:32;;;;;;;1.00;0.60;;;;;;;4.70;71.19;94975.77;110596;1274;22118;-80
2024/01/05 03:55:01;;;;;;;1.00;0.70;;;;;;;4.75;70.91;94977.83;110571;1274;22176;-80
2024/01/05 03:57:30;;;;;;;0.90;0.50;;;;;;;4.77;70.81;94984.97;110637;1275;22334;-79
2024/01/05 03:59:58;;;;;;;0.90;0.70;;;;;;;4.77;70.72;94985.14;110600;1274;22127;-79
2024/01/05 04:02:27;;;;;;;1.10;0.80;;;;;;;4.79;70.58;94995.75;110609;1274;22704;-80
2024/01/05 04:04:55;;;;;;;0.60;0.60;;;;;;;4.80;70.65;94988.78;110598;1274;22964;-79
2024/01/05 04:07:23;;;;;;;2.30;0.80;;;;;;;4.85;70.30;94998.34;110615;1274;22204;-79
2024/01/05 04:09:52;;;;;;;0.50;0.40;;;;;;;4.87;70.26;94995.36;110609;1274;22326;-80
2024/01/05 04:12:20;;;;;;;1.80;0.80;;;;;;;4.88;70.32;94997.79;110603;1274;22233;-79
2024/01/05 04:14:48;;;;;;;1.20;0.80;;;;;;;4.88;70.28;94996.39;110582;1274;23105;-80
2024/01/05 04:17:17;;;;;;;0.90;0.70;;;;;;;4.87;70.38;94993.09;110603;1274;22129;-79
2024/01/05 04:19:45;;;;;;;2.10;0.80;;;;;;;4.85;70.38;94991.02;110373;1275;22135;-79
2024/01/05 04:22:13;;;;;;;2.80;0.80;;;;;;;4.82;70.45;94987.20;110634;1274;22125;-78
2024/01/05 04:24:42;;;;;;;1.40;0.80;;;;;;;4.77;70.58;95007.10;110617;1274;22130;-80
2024/01/05 04:27:10;;;;;;;0.70;0.50;;;;;;;4.73;70.41;94997.19;110604;1274;22758;-80
2024/01/05 04:29:38;;;;;;;1.80;0.80;;;;;;;4.69;70.46;95000.52;110605;1274;22104;-81
2024/01/05 04:32:07;;;;;;;1.20;0.80;;;;;;;4.62;70.79;95012.23;110603;1274;22154;-81
2024/01/05 04:34:35;;;;;;;0.70;0.60;;;;;;;4.55;71.07;95008.27;110596;1272;22143;-80
2024/01/05 04:37:03;;;;;;;1.10;0.90;;;;;;;4.47;71.34;95006.38;110597;1274;22144;-80
2024/01/05 04:39:31;;;;;;;0.80;0.70;;;;;;;4.46;71.41;95011.42;110592;1274;22136;-80
2024/01/05 04:42:00;;;;;;;2.80;0.90;;;;;;;4.40;71.54;95007.96;110578;1274;22087;-81
2024/01/05 04:44:28;;;;;;;3.20;1.20;;;;;;;4.34;71.56;95012.35;110623;1274;22111;-81
2024/01/05 04:46:56;;;;;;;3.40;1.30;;;;;;;4.26;71.80;95014.81;110618;1274;22269;-81
2024/01/05 04:49:26;;;;;;;4.30;1.00;;;;;;;4.20;71.93;95015.89;110609;1274;22989;-81
2024/01/05 04:51:54;;;;;;;4.10;1.00;;;;;;;4.09;72.02;95014.17;110625;1274;22114;-81
2024/01/05 04:54:23;;;;;;;1.60;0.90;;;;;;;3.99;72.11;95020.30;110605;1274;22263;-81
2024/01/05 04:56:51;;;;;;;1.30;0.70;;;;;;;3.86;72.63;95020.49;110589;1274;22116;-80
2024/01/05 04:59:20;;;;;;;2.20;0.90;;;;;;;3.78;73.25;95022.09;110634;1274;22787;-81
2024/01/05 05:01:48;;;;;;;2.50;0.80;;;;;;;3.72;73.02;95026.96;110590;1275;22816;-81
2024/01/05 05:04:17;;;;;;;1.00;0.60;;;;;;;3.69;73.51;95022.79;110588;1274;22129;-80
2024/01/05 05:06:46;;;;;;;1.20;0.80;;;;;;;3.65;73.96;95021.75;110617;1274;22133;-81
2024/01/05 05:09:14;;;;;;;2.20;0.70;;;;;;;3.65;73.84;95028.02;110576;1275;22205;-81
2024/01/05 05:11:43;;;;;;;1.90;0.70;;;;;;;3.62;73.74;95028.54;110595;1275;22162;-80
2024/01/05 05:14:11;;;;;;;1.70;0.80;;;;;;;3.55;74.14;95029.94;110613;1274;22154;-81
2024/01/05 05:16:40;;;;;;;2.20;0.90;;;;;;;3.50;74.52;95036.02;110610;1275;22591;-80
2024/01/05 05:19:08;;;;;;;2.50;0.90;;;;;;;3.57;74.55;95041.05;110581;1275;22807;-79
2024/01/05 05:21:36;;;;;;;1.40;1.10;;;;;;;3.66;74.60;95045.05;110599;1275;22771;-80
2024/01/05 05:24:05;;;;;;;2.30;0.90;;;;;;;3.76;74.19;95045.22;110620;1274;22194;-80
2024/01/05 05:26:33;;;;;;;1.30;0.90;;;;;;;3.79;74.03;95042.44;110599;1274;22392;-80
2024/01/05 05:29:01;;;;;;;2.90;0.80;;;;;;;3.78;73.90;95047.66;110607;1274;22164;-81
2024/01/05 05:31:30;;;;;;;2.10;0.90;;;;;;;3.74;73.93;95048.70;110601;1263;23046;-80
2024/01/05 05:33:58;;;;;;;2.40;0.80;;;;;;;3.71;73.94;95056.35;110645;1274;22103;-80
2024/01/05 05:36:27;;;;;;;1.40;1.00;;;;;;;3.66;74.11;95054.10;110615;1275;23115;-80
2024/01/05 05:38:55;;;;;;;2.80;0.90;;;;;;;3.67;73.87;95058.98;110619;1274;22196;-80
2024/01/05 05:41:24;;;;;;;1.20;0.60;;;;;;;3.66;73.84;95058.62;110139;1274;615820;-81
2024/01/05 05:43:52;;;;;;;2.20;0.80;;;;;;;3.66;73.84;95058.10;110618;1274;22229;-80
2024/01/05 05:46:20;;;;;;;2.00;0.90;;;;;;;3.61;73.55;95057.05;110611;1274;22105;-81
2024/01/05 05:48:48;;;;;;;0.90;0.80;;;;;;;3.52;73.83;95052.89;110591;1274;22254;-80
2024/01/05 05:51:17;;;;;;;1.20;0.80;;;;;;;3.42;74.05;95058.80;110595;1274;22103;-80
2024/01/05 05:53:45;;;;;;;1.50;1.40;;;;;;;3.33;74.36;95057.58;110586;1275;22242;-80
2024/01/05 05:56:13;;;;;;;2.40;1.00;;;;;;;3.28;74.88;95055.15;110584;1274;23104;-79
2024/01/05 05:58:42;;;;;;;4.00;0.90;;;;;;;3.31;74.91;95056.02;110587;1274;22116;-80
2024/01/05 06:01:12;;;;;;;2.10;1.00;;;;;;;3.36;74.89;95065.41;110606;1275;22307;-80
2024/01/05 06:03:41;;;;;;;2.80;1.00;;;;;;;3.38;74.69;95068.02;110628;1274;22154;-80
2024/01/05 06:06:20;;;;;;;2.60;1.10;;;;;;;3.36;74.49;95070.27;110590;1274;22269;-81
2024/01/05 06:08:53;;;;;;;2.10;1.20;;;;;;;3.31;74.42;95074.60;110502;1274;22126;-80
2024/01/05 06:11:22;;;;;;;5.10;1.10;;;;;;;3.21;74.40;95078.59;110608;1274;22197;-81
2024/01/05 06:13:50;;;;;;;1.80;0.90;;;;;;;3.10;74.71;95071.98;110619;1275;22146;-80
2024/01/05 06:16:18;;;;;;;1.80;1.00;;;;;;;2.99;74.66;95074.04;110607;1275;22135;-80
2024/01/05 06:18:46;;;;;;;1.20;0.90;;;;;;;2.82;74.90;95072.08;110614;1274;22131;-80
2024/01/05 06:21:15;;;;;;;3.30;1.40;;;;;;;2.70;75.27;95075.19;110612;1274;22116;-81
2024/01/05 06:23:44;;;;;;;1.50;0.80;;;;;;;2.66;75.87;95072.05;110570;1274;22110;-80
2024/01/05 06:26:12;;;;;;;2.00;1.00;;;;;;;2.57;75.71;95069.75;110606;1274;22129;-81
2024/01/05 06:28:40;;;;;;;1.90;1.10;;;;;;;2.50;75.81;95071.64;110588;1274;22196;-80
2024/01/05 06:31:08;;;;;;;2.20;0.90;;;;;;;2.37;75.81;95078.87;110601;1274;22117;-80
2024/01/05 06:33:37;;;;;;;1.00;0.70;;;;;;;2.27;76.39;95080.73;110615;1261;22119;-80
2024/01/05 06:36:06;;;;;;;1.40;0.90;;;;;;;2.24;76.67;95077.75;110589;1274;22130;-81
2024/01/05 06:38:35;;;;;;;1.30;0.70;;;;;;;2.23;76.79;95084.35;110605;1274;22957;-80
2024/01/05 06:41:04;;;;;;;0.80;0.60;;;;;;;2.22;77.09;95087.13;110605;1274;22155;-80
2024/01/05 06:43:32;;;;;;;3.60;2.00;;;;;;;2.24;77.07;95090.60;110602;1274;22850;-80
2024/01/05 06:46:00;;;;;;;4.80;1.00;;;;;;;2.25;77.24;95091.81;110598;1274;22167;-81
2024/01/05 06:48:28;;;;;;;1.00;0.50;;;;;;;2.26;77.35;95098.77;110588;1274;22897;-80
2024/01/05 06:50:56;;;;;;;0.70;0.30;;;;;;;2.32;77.41;95098.46;110598;1274;22981;-81
2024/01/05 06:53:25;;;;;;;1.60;0.60;;;;;;;2.34;77.28;95098.48;110588;1275;22211;-80
2024/01/05 06:55:53;;;;;;;0.70;0.50;;;;;;;2.39;77.33;95103.52;110618;1274;22110;-81
2024/01/05 06:58:21;;;;;;;1.20;0.70;;;;;;;2.45;77.12;95103.55;110616;1274;22105;-80
2024/01/05 07:00:50;;;;;;;1.50;0.90;;;;;;;2.56;77.28;95108.81;110615;1274;22291;-81
2024/01/05 07:03:18;;;;;;;0.90;0.50;;;;;;;2.66;77.06;95106.24;110645;1274;22170;-81
2024/01/05 07:05:46;;;;;;;4.00;0.60;;;;;;;2.77;76.86;95104.20;110614;1274;22124;-81
2024/01/05 07:08:14;;;;;;;1.90;0.90;;;;;;;2.82;76.99;95094.66;110609;1274;22132;-80
2024/01/05 07:10:43;;;;;;;0.60;0.50;;;;;;;2.92;76.84;95097.30;110589;1274;22130;-81
2024/01/05 07:13:11;;;;;;;0.30;0.30;;;;;;;2.97;76.28;95097.50;110590;1274;22110;-81
2024/01/05 07:15:39;;;;;;;0.80;0.50;;;;;;;2.94;75.74;95097.31;110491;1274;22108;-81
2024/01/05 07:18:07;;;;;;;0.80;0.50;;;;;;;2.98;75.80;95095.06;110583;1274;22883;-80
2024/01/05 07:20:36;;;;;;;7.40;3.40;;;;;;;3.02;75.75;95095.23;110601;1267;22123;-80
2024/01/05 07:23:04;;;;;;;8.00;4.00;;;;;;;2.98;75.56;95094.02;110592;1274;22905;-80
2024/01/05 07:25:32;;;;;;;1.90;1.00;;;;;;;2.94;75.89;95092.45;110571;1274;22281;-81
2024/01/05 07:28:03;;;;;;;1.60;1.00;;;;;;;2.96;75.77;95090.02;110597;1274;22155;-80
2024/01/05 07:30:31;;;;;;;1.50;0.50;;;;;;;2.95;75.82;95091.41;110606;1274;22108;-81
2024/01/05 07:33:00;;;;;;;1.30;0.50;;;;;;;2.87;75.85;95092.95;110612;1274;22298;-81
2024/01/05 07:35:28;;;;;;;0.90;0.60;;;;;;;2.83;75.90;95095.54;110597;1274;22280;-80
2024/01/05 07:37:59;;;;;;;4.20;1.50;;;;;;;2.82;75.95;95097.11;110615;1274;23219;-81
2024/01/05 07:40:27;;;;;;;2.50;2.00;;;;;;;2.95;76.16;95091.92;110609;1274;22173;-80
2024/01/05 07:42:55;;;;;;;1.90;1.10;;;;;;;3.15;75.32;95095.61;110590;1274;22120;-81
2024/01/05 07:45:23;;;;;;;3.50;1.80;;;;;;;3.45;75.08;95089.75;110613;1274;22090;-80
2024/01/05 07:47:54;;;;;;;6.30;2.60;;;;;;;3.70;74.77;95087.66;110615;1274;22556;-81
2024/01/05 07:50:23;;;;;;;5.60;3.20;;;;;;;3.88;73.94;95095.65;110589;1274;22142;-81
2024/01/05 07:52:51;;;;;;;9.20;3.40;;;;;;;4.09;72.94;95089.37;110591;1274;22346;-81
2024/01/05 07:55:19;;;;;;;8.60;4.20;;;;;;;4.32;72.29;95088.62;110576;1274;22127;-81
2024/01/05 07:57:47;;;;;;;5.40;2.50;;;;;;;4.52;72.03;95083.33;110612;1274;22126;-81
2024/01/05 08:00:16;;;;;;;7.70;3.00;;;;;;;4.70;70.17;95082.39;110649;1274;22079;-81
2024/01/05 08:02:44;;;;;;;5.50;2.90;;;;;;;4.84;70.20;95081.45;110606;1274;22224;-80
2024/01/05 08:05:13;;;;;;;5.10;2.40;;;;;;;4.94;69.32;95080.02;110595;1274;22101;-81
2024/01/05 08:07:43;;;;;;;8.80;3.50;;;;;;;5.04;69.03;95079.27;110612;1274;22133;-81
2024/01/05 08:10:12;;;;;;;6.20;3.60;;;;;;;5.14;69.78;95083.75;110478;1274;22133;-81
2024/01/05 08:12:40;;;;;;;5.20;2.10;;;;;;;5.23;68.58;95080.20;110582;1274;22101;-81
2024/01/05 08:15:08;;;;;;;4.40;2.10;;;;;;;5.31;67.73;95071.61;110618;1274;22694;-81
2024/01/05 08:17:37;;;;;;;4.50;2.10;;;;;;;5.42;65.86;95075.71;110585;1274;22743;-81
2024/01/05 08:20:06;;;;;;;4.70;2.50;;;;;;;5.53;67.41;95077.73;110608;1274;22256;-81
2024/01/05 08:22:34;;;;;;;5.20;2.20;;;;;;;5.61;67.14;95073.47;110598;1274;22596;-81
2024/01/05 08:25:03;;;;;;;1.90;1.10;;;;;;;5.71;66.15;95072.88;110600;1274;22136;-81
2024/01/05 08:27:31;;;;;;;4.70;3.20;;;;;;;5.80;65.51;95077.69;110582;1274;22877;-80
2024/01/05 08:29:59;;;;;;;5.10;2.60;;;;;;;5.89;65.39;95079.37;110596;1274;22305;-81
2024/01/05 08:32:27;;;;;;;3.50;1.40;;;;;;;5.98;65.47;95081.77;110493;1274;22148;-81
2024/01/05 08:34:56;;;;;;;4.90;2.20;;;;;;;6.04;64.38;95078.73;110601;1274;22990;-81
2024/01/05 08:37:24;;;;;;;5.30;2.50;;;;;;;6.12;64.48;95079.36;110612;1260;22145;-81
2024/01/05 08:39:52;;;;;;;5.10;3.20;;;;;;;6.15;64.93;95071.64;110568;1274;22163;-80
2024/01/05 08:42:21;;;;;;;5.90;3.10;;;;;;;6.16;65.00;95070.06;110605;1274;22111;-81
2024/01/05 08:44:50;;;;;;;6.40;2.50;;;;;;;6.18;64.83;95072.31;110596;1274;22128;-80
2024/01/05 08:47:18;;;;;;;5.60;2.90;;;;;;;6.22;64.82;95076.30;110617;1274;22182;-81
2024/01/05 08:49:46;;;;;;;4.40;2.40;;;;;;;6.24;64.72;95082.02;110586;1274;22140;-81
2024/01/05 08:52:15;;;;;;;4.30;2.30;;;;;;;6.29;64.66;95088.10;110628;1275;22203;-80
2024/01/05 08:54:43;;;;;;;7.30;3.60;;;;;;;6.36;64.50;95094.48;110491;1274;22138;-80
2024/01/05 08:57:13;;;;;;;5.50;2.10;;;;;;;6.42;64.31;95094.95;110628;1274;22130;-80
2024/01/05 08:59:43;;;;;;;3.30;1.60;;;;;;;6.47;63.79;95106.42;110654;1274;22139;-80
2024/01/05 09:02:11;;;;;;;3.50;1.60;;;;;;;6.53;63.50;95109.52;110630;1274;22177;-81
2024/01/05 09:04:40;;;;;;;2.70;2.00;;;;;;;6.60;63.50;95106.81;110601;1274;22118;-81
2024/01/05 09:07:08;;;;;;;1.80;1.40;;;;;;;6.65;62.69;95106.05;110616;1274;23220;-80
2024/01/05 09:09:36;;;;;;;4.20;2.00;;;;;;;6.70;61.70;95106.17;110634;1274;22337;-80
2024/01/05 09:12:05;;;;;;;4.70;2.00;;;;;;;6.77;62.23;95103.30;110600;1274;22274;-81
2024/01/05 09:14:33;;;;;;;3.60;1.40;;;;;;;6.84;61.13;95103.90;110609;1274;22755;-81
2024/01/05 09:17:02;;;;;;;3.80;2.10;;;;;;;6.90;60.86;95105.23;110605;1274;22209;-81
2024/01/05 09:19:30;;;;;;;3.40;2.00;;;;;;;6.99;61.03;95106.70;110590;1274;22182;-80
2024/01/05 09:21:59;;;;;;;3.20;1.70;;;;;;;7.07;60.94;95100.30;110600;1274;22128;-80
2024/01/05 09:24:29;;;;;;;4.80;1.80;;;;;;;7.14;60.49;95107.03;110609;1274;22892;-80
2024/01/05 09:26:57;;;;;;;3.20;1.30;;;;;;;7.21;58.61;95102.39;110618;1274;22226;-80
2024/01/05 09:29:26;;;;;;;4.70;1.30;;;;;;;7.32;58.99;95105.57;110589;1274;22102;-80
2024/01/05 09:31:54;;;;;;;2.80;1.80;;;;;;;7.41;59.47;95100.89;110633;1274;22195;-81
2024/01/05 09:34:22;;;;;;;3.60;1.90;;;;;;;7.48;59.93;95095.88;110604;1274;22151;-80
2024/01/05 09:36:51;;;;;;;2.90;1.60;;;;;;;7.57;59.54;95085.77;110568;1274;22157;-80
2024/01/05 09:39:20;;;;;;;2.20;1.20;;;;;;;7.64;58.54;95085.50;110565;1274;22595;-81
2024/01/05 09:41:48;;;;;;;2.50;1.10;;;;;;;7.69;57.71;95082.79;110613;1274;22223;-80
2024/01/05 09:44:17;;;;;;;3.50;2.20;;;;;;;7.76;57.67;95086.71;110605;1274;22766;-81
2024/01/05 09:46:45;;;;;;;3.80;1.20;;;;;;;7.82;57.74;95081.17;110604;1274;22127;-81
2024/01/05 09:49:16;;;;;;;1.70;1.00;;;;;;;7.94;58.52;95084.15;110549;1274;22176;-79
2024/01/05 09:51:45;;;;;;;2.40;1.40;;;;;;;8.08;54.86;95086.38;110619;1274;22754;-81
2024/01/05 09:54:13;;;;;;;7.10;3.40;;;;;;;8.30;55.23;95083.53;110616;1274;22119;-80
2024/01/05 09:56:46;;;;;;;1.40;1.30;;;;;;;8.70;53.29;95078.60;110593;1274;22176;-81
2024/01/05 09:59:17;;;;;;;1.10;0.60;;;;;;;9.16;54.97;95074.66;110591;1274;22262;-81
2024/01/05 10:01:50;;;;;;;3.10;0.50;;;;;;;9.60;50.97;95068.95;110635;1274;22119;-80
2024/01/05 10:04:19;;;;;;;0.70;0.60;;;;;;;9.92;49.86;95067.84;110621;1274;22134;-80
2024/01/05 10:06:59;;;;;;;1.10;0.50;;;;;;;10.30;49.60;95070.42;110601;1274;22326;-80
2024/01/05 10:09:29;;;;;;;3.30;1.80;;;;;;;10.85;50.93;95064.92;110471;1274;22162;-80
2024/01/05 10:11:58;;;;;;;4.20;1.50;;;;;;;11.28;48.92;95060.69;110612;1267;22209;-80
2024/01/05 10:14:26;;;;;;;2.40;1.20;;;;;;;11.52;47.13;95056.63;110491;1274;22195;-80
2024/01/05 10:17:08;;;;;;;2.30;0.90;;;;;;;11.71;45.95;95062.02;110591;1274;22285;-80
2024/01/05 10:19:39;;;;;;;3.60;1.60;;;;;;;11.90;47.02;95068.14;110560;1274;22189;-80
2024/01/05 10:22:10;;;;;;;2.90;1.40;;;;;;;12.15;45.79;95066.60;110488;1273;22123;-81
2024/01/05 10:24:40;;;;;;;2.30;1.20;;;;;;;12.26;44.99;95070.48;110510;1274;22682;-79
2024/01/05 10:27:12;;;;;;;1.80;1.20;;;;;;;12.42;44.05;95073.11;110633;1274;22131;-81
2024/01/05 10:29:55;;;;;;;0.60;0.50;;;;;;;12.74;44.18;95049.25;110583;1274;23081;-81
2024/01/05 10:32:25;;;;;;;3.20;1.40;;;;;;;12.96;43.07;95049.13;110572;1274;23310;-80
2024/01/05 10:34:54;;;;;;;5.20;2.60;;;;;;;13.16;43.24;95047.70;110630;1274;22138;-81
2024/01/05 10:37:22;;;;;;;1.80;1.40;;;;;;;13.37;42.38;95038.98;110595;1273;22131;-80
2024/01/05 10:39:56;;;;;;;3.00;1.70;;;;;;;13.60;41.92;95045.86;110630;1274;22356;-77
2024/01/05 10:42:28;;;;;;;2.30;1.00;;;;;;;13.90;41.24;95046.46;110607;1274;22089;-78
2024/01/05 10:44:57;;;;;;;2.70;1.60;;;;;;;14.08;39.39;95036.85;110586;1274;22249;-78
2024/01/05 10:47:31;;;;;;;3.00;1.00;;;;;;;14.22;39.74;95036.11;110577;1259;22189;-79
2024/01/05 10:50:01;;;;;;;7.60;3.00;;;;;;;14.60;39.74;95038.79;110626;1274;22868;-79
2024/01/05 10:52:33;;;;;;;7.20;2.20;;;;;;;15.00;40.20;95031.02;110607;1274;22305;-78
2024/01/05 10:55:03;;;;;;;2.30;1.20;;;;;;;15.41;39.73;95034.84;110590;1274;22222;-77
2024/01/05 10:57:36;;;;;;;0.50;0.30;;;;;;;15.44;36.68;95028.86;110588;1274;22084;-78
2024/01/05 11:00:06;;;;;;;4.50;1.20;;;;;;;15.49;37.00;95022.55;110506;1274;22197;-78
2024/01/05 11:02:40;;;;;;;4.70;2.70;;;;;;;15.71;37.79;95016.59;110604;1259;22113;-78
2024/01/05 11:05:11;;;;;;;1.70;0.90;;;;;;;15.95;36.58;95022.20;110539;1274;22205;-78
2024/01/05 11:07:42;;;;;;;3.70;2.40;;;;;;;16.04;35.95;95020.34;110609;1274;22138;-78
2024/01/05 11:10:41;;;;;;;6.10;3.00;;;;;;;16.03;35.83;95020.22;110568;1274;22193;-78
2024/01/05 11:13:18;;;;;;;0.80;0.60;;;;;;;16.10;34.13;95027.34;110620;1274;22843;-77
2024/01/05 11:16:15;;;;;;;3.70;1.30;;;;;;;15.91;33.65;95023.42;110612;1274;22299;-78
2024/01/05 11:18:56;;;;;;;1.50;1.10;;;;;;;16.15;35.25;95024.22;110527;1274;22128;-78
2024/01/05 11:21:33;;;;;;;1.90;1.10;;;;;;;16.32;34.36;95019.31;110613;1274;22137;-78
2024/01/05 11:24:02;;;;;;;1.10;0.90;;;;;;;16.44;34.15;95020.82;110641;1274;22206;-78
2024/01/05 11:26:35;;;;;;;0.70;0.60;;;;;;;16.58;33.39;95012.08;110583;1274;22129;-79
2024/01/05 11:29:05;;;;;;;1.80;0.90;;;;;;;16.77;32.89;95007.08;110490;1274;22792;-78
2024/01/05 11:31:45;;;;;;;2.30;1.60;;;;;;;16.99;33.04;95005.42;110631;1274;22933;-78
2024/01/05 11:34:28;;;;;;;0.90;0.80;;;;;;;17.18;32.76;95004.38;110651;1274;22264;-78
2024/01/05 11:36:58;;;;;;;3.00;2.10;;;;;;;17.35;32.46;95008.95;110626;1274;22113;-79
2024/01/05 11:39:45;;;;;;;3.00;2.40;;;;;;;17.48;33.03;95007.16;110601;1274;22880;-78
2024/01/05 11:42:23;;;;;;;3.00;1.30;;;;;;;17.49;31.43;95012.13;110518;1274;22207;-78